createdAt,value
2018-09-13T00:01:25.328Z,0.37
2018-09-13T00:03:53.645Z,0.50
2018-09-13T00:06:25.099Z,0.47
2018-09-13T00:08:53.416Z,0.50
2018-09-13T00:11:21.765Z,0.40
2018-09-13T00:13:50.392Z,0.50
2018-09-13T00:16:18.717Z,0.50
2018-09-13T00:18:53.450Z,0.50
2018-09-13T00:21:21.791Z,0.30
2018-09-13T00:23:50.100Z,0.30
2018-09-13T00:26:18.424Z,0.40
2018-09-13T00:28:46.728Z,0.40
2018-09-13T00:31:15.065Z,0.40
2018-09-13T00:33:43.376Z,0.50
2018-09-13T00:36:11.695Z,0.70
2018-09-13T00:38:40.005Z,0.60
2018-09-13T00:41:08.352Z,0.50
2018-09-13T00:43:36.665Z,0.30
2018-09-13T00:46:05.014Z,0.40
2018-09-13T00:48:33.429Z,0.50
2018-09-13T00:51:01.761Z,0.50
2018-09-13T00:53:30.064Z,0.50
2018-09-13T00:55:58.405Z,0.40
2018-09-13T00:58:26.723Z,0.60
2018-09-13T01:00:55.071Z,0.60
2018-09-13T01:03:23.397Z,0.50
2018-09-13T01:05:51.736Z,0.50
2018-09-13T01:08:20.059Z,0.50
2018-09-13T01:10:48.416Z,0.53
2018-09-13T01:13:16.738Z,0.60
2018-09-13T01:15:45.066Z,0.50
2018-09-13T01:18:13.373Z,0.40
2018-09-13T01:20:41.738Z,0.60
2018-09-13T01:23:10.078Z,0.47
2018-09-13T01:25:38.401Z,0.50
2018-09-13T01:28:06.714Z,0.70
2018-09-13T01:30:35.062Z,0.40
2018-09-13T01:33:03.360Z,0.40
2018-09-13T01:35:31.691Z,0.50
2018-09-13T01:38:00.002Z,0.50
2018-09-13T01:40:28.338Z,0.43
2018-09-13T01:42:56.655Z,0.43
2018-09-13T01:45:24.990Z,0.50
2018-09-13T01:47:53.306Z,0.50
2018-09-13T01:50:21.635Z,0.40
2018-09-13T01:52:49.938Z,0.40
2018-09-13T01:55:18.278Z,0.50
2018-09-13T01:57:46.585Z,0.40
2018-09-13T02:00:14.909Z,0.60
2018-09-13T02:02:43.219Z,0.50
2018-09-13T02:05:11.536Z,0.40
2018-09-13T02:07:39.848Z,0.60
2018-09-13T02:10:08.196Z,0.40
2018-09-13T02:12:36.501Z,0.50
2018-09-13T02:15:04.857Z,0.60
2018-09-13T02:17:33.156Z,0.50
2018-09-13T02:20:01.476Z,0.50
2018-09-13T02:22:29.777Z,0.47
2018-09-13T02:24:58.088Z,0.70
2018-09-13T02:27:26.681Z,0.60
2018-09-13T02:29:55.012Z,0.50
2018-09-13T02:32:23.757Z,0.40
2018-09-13T02:34:52.081Z,0.40
2018-09-13T02:37:20.409Z,0.50
2018-09-13T02:39:48.721Z,0.40
2018-09-13T02:42:17.061Z,0.50
2018-09-13T02:44:45.364Z,0.40
2018-09-13T02:47:13.697Z,0.47
2018-09-13T02:49:41.997Z,0.60
2018-09-13T02:52:10.318Z,0.50
2018-09-13T02:54:38.654Z,0.57
2018-09-13T02:57:06.973Z,0.50
2018-09-13T02:59:35.281Z,0.50
2018-09-13T03:02:03.606Z,0.70
2018-09-13T03:04:31.921Z,0.63
2018-09-13T03:07:00.252Z,0.50
2018-09-13T03:09:28.563Z,0.60
2018-09-13T03:11:56.905Z,0.40
2018-09-13T03:14:25.209Z,0.50
2018-09-13T03:16:53.630Z,0.40
2018-09-13T03:19:21.938Z,0.63
2018-09-13T03:21:50.266Z,0.50
2018-09-13T03:24:18.572Z,0.63
2018-09-13T03:26:46.894Z,0.50
2018-09-13T03:29:15.220Z,0.40
2018-09-13T03:31:43.546Z,0.73
2018-09-13T03:34:11.856Z,0.70
2018-09-13T03:36:40.194Z,0.77
2018-09-13T03:39:09.706Z,0.60
2018-09-13T03:41:38.053Z,0.60
2018-09-13T03:44:06.525Z,0.50
2018-09-13T03:46:35.135Z,0.70
2018-09-13T03:49:03.432Z,0.70
2018-09-13T03:51:31.757Z,0.63
2018-09-13T03:54:00.066Z,0.70
2018-09-13T03:56:28.409Z,0.70
2018-09-13T03:58:56.721Z,0.93
2018-09-13T04:01:25.045Z,0.60
2018-09-13T04:03:53.357Z,1.00
2018-09-13T04:06:21.697Z,0.77
2018-09-13T04:08:50.013Z,0.90
2018-09-13T04:11:18.366Z,0.57
2018-09-13T04:13:46.676Z,0.60
2018-09-13T04:16:15.033Z,0.50
2018-09-13T04:18:43.413Z,0.70
2018-09-13T04:21:11.731Z,0.70
2018-09-13T04:23:40.072Z,0.60
2018-09-13T04:26:08.392Z,0.67
2018-09-13T04:28:37.772Z,0.57
2018-09-13T04:31:06.147Z,0.50
2018-09-13T04:33:34.453Z,0.67
2018-09-13T04:36:02.915Z,0.40
2018-09-13T04:38:31.218Z,0.50
2018-09-13T04:40:59.544Z,0.70
2018-09-13T04:43:27.885Z,0.50
2018-09-13T04:45:56.193Z,0.70
2018-09-13T04:48:24.521Z,0.60
2018-09-13T04:50:52.837Z,0.60
2018-09-13T04:53:21.157Z,0.70
2018-09-13T04:55:49.656Z,0.70
2018-09-13T04:58:18.007Z,0.63
2018-09-13T05:00:46.336Z,0.70
2018-09-13T05:03:14.654Z,0.70
2018-09-13T05:05:42.952Z,0.57
2018-09-13T05:08:11.281Z,0.63
2018-09-13T05:10:39.614Z,0.70
2018-09-13T05:13:07.946Z,0.70
2018-09-13T05:15:36.253Z,0.63
2018-09-13T05:18:04.591Z,0.80
2018-09-13T05:20:32.881Z,0.80
2018-09-13T05:23:01.209Z,0.63
2018-09-13T05:25:29.520Z,0.50
2018-09-13T05:27:57.845Z,0.60
2018-09-13T05:30:26.154Z,0.67
2018-09-13T05:32:54.482Z,0.60
2018-09-13T05:35:22.825Z,0.63
2018-09-13T05:37:51.156Z,0.57
2018-09-13T05:40:19.472Z,0.63
2018-09-13T05:42:47.880Z,0.70
2018-09-13T05:45:16.670Z,0.50
2018-09-13T05:47:44.988Z,0.80
2018-09-13T05:50:13.287Z,0.73
2018-09-13T05:52:41.613Z,0.60
2018-09-13T05:55:09.916Z,0.80
2018-09-13T05:57:38.232Z,0.90
2018-09-13T06:00:06.853Z,0.70
2018-09-13T06:02:35.173Z,0.67
2018-09-13T06:05:03.487Z,0.60
2018-09-13T06:07:31.809Z,0.67
2018-09-13T06:10:00.141Z,0.80
2018-09-13T06:12:28.459Z,0.70
2018-09-13T06:14:56.749Z,0.50
2018-09-13T06:17:25.069Z,0.50
2018-09-13T06:19:53.573Z,0.70
2018-09-13T06:22:21.910Z,0.67
2018-09-13T06:24:50.216Z,1.00
2018-09-13T06:27:18.537Z,0.60
2018-09-13T06:29:46.850Z,0.77
2018-09-13T06:32:15.177Z,0.90
2018-09-13T06:34:43.476Z,0.70
2018-09-13T06:37:11.807Z,0.60
2018-09-13T06:39:40.110Z,0.80
2018-09-13T06:42:08.442Z,0.60
2018-09-13T06:44:36.745Z,0.53
2018-09-13T06:47:05.102Z,0.60
2018-09-13T06:49:33.404Z,0.90
2018-09-13T06:52:01.714Z,0.60
2018-09-13T06:54:30.044Z,0.57
2018-09-13T06:56:58.347Z,0.60
2018-09-13T06:59:26.696Z,0.70
2018-09-13T07:01:55.019Z,0.70
2018-09-13T07:04:23.349Z,0.47
2018-09-13T07:06:51.657Z,0.50
2018-09-13T07:09:19.989Z,0.60
2018-09-13T07:11:48.328Z,0.80
2018-09-13T07:14:23.289Z,0.60
2018-09-13T07:16:52.269Z,0.80
2018-09-13T07:19:20.597Z,0.67
2018-09-13T07:21:48.893Z,0.83
2018-09-13T07:24:17.212Z,0.83
2018-09-13T07:26:45.522Z,0.80
2018-09-13T07:29:13.870Z,0.83
2018-09-13T07:31:42.181Z,0.63
2018-09-13T07:34:10.506Z,0.80
2018-09-13T07:36:38.875Z,0.37
2018-09-13T07:39:09.283Z,0.63
2018-09-13T07:41:37.708Z,0.60
2018-09-13T07:44:06.078Z,0.70
2018-09-13T07:46:34.465Z,0.93
2018-09-13T07:49:02.854Z,0.60
2018-09-13T07:51:32.251Z,0.80
2018-09-13T07:54:00.590Z,0.80
2018-09-13T07:56:28.952Z,0.70
2018-09-13T07:58:57.245Z,0.63
2018-09-13T08:01:25.549Z,0.60
2018-09-13T08:03:53.881Z,0.70
2018-09-13T08:06:22.181Z,0.67
2018-09-13T08:08:50.509Z,0.90
2018-09-13T08:11:18.841Z,0.60
2018-09-13T08:13:47.182Z,0.90
2018-09-13T08:16:15.476Z,0.80
2018-09-13T08:18:43.803Z,0.70
2018-09-13T08:21:12.115Z,0.70
2018-09-13T08:23:40.436Z,0.80
2018-09-13T08:26:08.734Z,0.90
2018-09-13T08:28:37.069Z,0.80
2018-09-13T08:31:05.366Z,0.70
2018-09-13T08:33:33.688Z,0.60
2018-09-13T08:36:01.990Z,0.57
2018-09-13T08:38:30.324Z,0.70
2018-09-13T08:40:58.632Z,0.80
2018-09-13T08:43:26.974Z,0.63
2018-09-13T08:45:55.286Z,0.60
2018-09-13T08:48:23.611Z,0.67
2018-09-13T08:50:51.933Z,0.90
2018-09-13T08:53:20.254Z,0.80
2018-09-13T08:55:48.557Z,0.90
2018-09-13T08:58:16.872Z,0.80
2018-09-13T09:00:45.225Z,0.80
2018-09-13T09:03:13.546Z,0.80
2018-09-13T09:05:41.864Z,0.90
2018-09-13T09:08:10.179Z,0.70
2018-09-13T09:10:38.539Z,0.70
2018-09-13T09:13:06.850Z,0.80
2018-09-13T09:15:35.204Z,0.80
2018-09-13T09:18:03.511Z,0.70
2018-09-13T09:20:31.841Z,0.63
2018-09-13T09:23:00.152Z,0.70
2018-09-13T09:25:28.473Z,0.70
2018-09-13T09:27:56.783Z,0.73
2018-09-13T09:30:25.106Z,1.00
2018-09-13T09:32:53.426Z,1.00
2018-09-13T09:35:28.442Z,0.83
2018-09-13T09:37:56.740Z,1.20
2018-09-13T09:40:25.112Z,0.90
2018-09-13T09:42:53.431Z,0.90
2018-09-13T09:45:21.831Z,1.00
2018-09-13T09:47:50.137Z,0.80
2018-09-13T09:50:18.462Z,1.20
2018-09-13T09:52:46.765Z,1.30
2018-09-13T09:55:19.077Z,1.20
2018-09-13T09:57:47.480Z,1.20
2018-09-13T10:00:15.798Z,1.90
2018-09-13T10:02:44.106Z,1.00
2018-09-13T10:05:12.433Z,1.27
2018-09-13T10:07:40.734Z,0.80
2018-09-13T10:10:09.101Z,1.10
2018-09-13T10:12:37.409Z,0.97
2018-09-13T10:15:11.313Z,1.10
2018-09-13T10:17:44.951Z,1.07
2018-09-13T10:20:18.580Z,1.00
2018-09-13T10:22:52.232Z,1.13
2018-09-13T10:25:25.910Z,1.10
2018-09-13T10:27:59.614Z,0.80
2018-09-13T10:30:33.293Z,0.77
2018-09-13T10:33:06.950Z,0.73
2018-09-13T10:35:40.680Z,0.73
2018-09-13T10:38:14.409Z,0.97
2018-09-13T10:40:48.154Z,0.87
2018-09-13T10:43:21.909Z,0.80
2018-09-13T10:45:55.570Z,0.80
2018-09-13T10:48:27.272Z,0.63
2018-09-13T10:51:00.957Z,0.90
2018-09-13T10:53:29.290Z,0.90
2018-09-13T10:55:57.638Z,1.00
2018-09-13T10:58:25.977Z,1.07
2018-09-13T11:00:54.317Z,0.93
2018-09-13T11:03:22.674Z,1.20
2018-09-13T11:05:51.003Z,0.90
2018-09-13T11:08:19.313Z,0.90
2018-09-13T11:10:47.763Z,0.80
2018-09-13T11:13:23.277Z,0.90
2018-09-13T11:15:51.614Z,1.10
2018-09-13T11:18:19.922Z,1.00
2018-09-13T11:20:48.256Z,0.90
2018-09-13T11:23:16.577Z,0.90
2018-09-13T11:25:44.908Z,0.80
2018-09-13T11:28:13.213Z,0.97
2018-09-13T11:30:41.619Z,0.70
2018-09-13T11:33:09.869Z,1.03
2018-09-13T11:35:38.199Z,1.00
2018-09-13T11:38:06.507Z,1.00
2018-09-13T11:40:34.993Z,1.00
2018-09-13T11:43:03.174Z,1.00
2018-09-13T11:45:31.593Z,0.80
2018-09-13T11:47:59.904Z,0.80
2018-09-13T11:50:28.236Z,0.73
2018-09-13T11:52:56.549Z,0.70
2018-09-13T11:55:24.897Z,0.90
2018-09-13T11:57:53.200Z,1.00
2018-09-13T12:00:21.553Z,0.80
2018-09-13T12:02:49.857Z,0.60
2018-09-13T12:05:18.190Z,0.60
2018-09-13T12:07:46.494Z,0.70
2018-09-13T12:10:14.845Z,0.70
2018-09-13T12:12:44.522Z,0.80
2018-09-13T12:15:12.893Z,0.67
2018-09-13T12:17:41.264Z,0.73
2018-09-13T12:20:09.631Z,0.77
2018-09-13T12:22:38.129Z,0.90
2018-09-13T12:25:07.532Z,0.60
2018-09-13T12:27:35.887Z,0.83
2018-09-13T12:30:04.852Z,0.70
2018-09-13T12:32:33.221Z,0.70
2018-09-13T12:35:01.581Z,1.10
2018-09-13T12:37:29.891Z,1.00
2018-09-13T12:39:58.208Z,0.87
2018-09-13T12:42:26.517Z,1.00
2018-09-13T12:44:54.869Z,0.80
2018-09-13T12:47:23.192Z,0.60
2018-09-13T12:49:51.576Z,0.57
2018-09-13T12:52:19.932Z,0.50
2018-09-13T12:54:48.209Z,0.77
2018-09-13T12:57:16.561Z,0.60
2018-09-13T12:59:44.861Z,0.70
2018-09-13T13:02:13.212Z,0.80
2018-09-13T13:04:41.532Z,0.60
2018-09-13T13:07:09.852Z,0.80
2018-09-13T13:09:38.160Z,0.70
2018-09-13T13:12:06.549Z,0.60
2018-09-13T13:14:34.869Z,0.70
2018-09-13T13:17:03.815Z,0.73
2018-09-13T13:19:32.153Z,0.70
2018-09-13T13:22:00.460Z,0.77
2018-09-13T13:24:28.762Z,0.67
2018-09-13T13:26:57.163Z,0.67
2018-09-13T13:29:25.472Z,0.73
2018-09-13T13:31:53.805Z,0.90
2018-09-13T13:34:22.110Z,1.17
2018-09-13T13:36:50.429Z,0.90
2018-09-13T13:39:18.734Z,0.97
2018-09-13T13:41:47.052Z,0.70
2018-09-13T13:44:15.361Z,0.80
2018-09-13T13:46:43.713Z,0.60
2018-09-13T13:49:12.025Z,0.70
2018-09-13T13:51:40.365Z,0.80
2018-09-13T13:54:08.681Z,0.50
2018-09-13T13:56:37.008Z,0.60
2018-09-13T13:59:05.315Z,0.60
2018-09-13T14:01:33.730Z,0.57
2018-09-13T14:04:02.029Z,0.60
2018-09-13T14:06:30.352Z,0.50
2018-09-13T14:08:58.662Z,0.57
2018-09-13T14:11:27.008Z,0.40
2018-09-13T14:13:55.312Z,0.70
2018-09-13T14:16:23.646Z,0.50
2018-09-13T14:18:51.968Z,0.67
2018-09-13T14:21:20.289Z,0.57
2018-09-13T14:23:48.599Z,0.70
2018-09-13T14:26:16.900Z,1.00
2018-09-13T14:28:45.226Z,0.70
2018-09-13T14:31:13.545Z,0.50
2018-09-13T14:33:42.252Z,0.60
2018-09-13T14:36:10.564Z,0.47
2018-09-13T14:41:12.536Z,0.57
2018-09-13T14:43:40.834Z,0.50
2018-09-13T14:46:09.142Z,0.60
2018-09-13T14:48:37.474Z,0.40
2018-09-13T14:51:05.984Z,0.50
2018-09-13T14:53:34.316Z,0.73
2018-09-13T14:56:02.629Z,0.40
2018-09-13T14:58:30.963Z,0.40
2018-09-13T15:00:59.276Z,0.60
2018-09-13T15:03:27.616Z,0.40
2018-09-13T15:05:55.917Z,0.50
2018-09-13T15:08:24.241Z,0.60
2018-09-13T15:10:52.596Z,0.63
2018-09-13T15:13:20.922Z,0.60
2018-09-13T15:15:49.229Z,0.70
2018-09-13T15:18:17.589Z,0.50
2018-09-13T15:20:45.888Z,0.60
2018-09-13T15:23:20.915Z,0.60
2018-09-13T15:25:49.222Z,0.43
2018-09-13T15:28:17.538Z,0.50
2018-09-13T15:30:45.841Z,0.50
2018-09-13T15:33:14.169Z,0.50
2018-09-13T15:35:42.480Z,0.60
2018-09-13T15:38:10.806Z,0.53
2018-09-13T15:40:39.120Z,0.50
2018-09-13T15:43:07.492Z,0.53
2018-09-13T15:45:35.837Z,0.73
2018-09-13T15:48:04.120Z,0.50
2018-09-13T15:50:32.425Z,0.53
2018-09-13T15:53:00.749Z,0.60
2018-09-13T15:55:29.048Z,0.50
2018-09-13T15:57:57.372Z,0.50
2018-09-13T16:00:25.665Z,0.60
2018-09-13T16:02:53.992Z,0.50
2018-09-13T16:05:22.289Z,0.40
2018-09-13T16:07:50.612Z,0.47
2018-09-13T16:10:18.938Z,0.50
2018-09-13T16:12:47.344Z,0.63
2018-09-13T16:15:15.596Z,0.60
2018-09-13T16:17:43.922Z,0.57
2018-09-13T16:20:12.232Z,0.50
2018-09-13T16:22:40.557Z,0.47
2018-09-13T16:27:43.557Z,0.80
2018-09-13T16:30:11.861Z,0.60
2018-09-13T16:32:40.193Z,0.67
2018-09-13T16:35:08.627Z,0.50
2018-09-13T16:37:42.193Z,0.60
2018-09-13T16:40:21.146Z,0.57
2018-09-13T16:42:54.884Z,0.60
2018-09-13T16:45:31.781Z,0.70
2018-09-13T16:48:03.760Z,0.60
2018-09-13T16:50:32.066Z,0.60
2018-09-13T16:53:00.484Z,0.70
2018-09-13T16:55:28.750Z,0.60
2018-09-13T16:57:57.077Z,0.63
2018-09-13T17:00:26.449Z,0.60
2018-09-13T17:02:55.270Z,0.70
2018-09-13T17:05:23.610Z,0.60
2018-09-13T17:07:51.917Z,0.90
2018-09-13T17:10:20.263Z,0.70
2018-09-13T17:12:48.569Z,0.70
2018-09-13T17:15:16.921Z,1.00
2018-09-13T17:17:45.271Z,0.80
2018-09-13T17:20:13.593Z,0.87
2018-09-13T17:22:42.090Z,0.87
2018-09-13T17:25:10.404Z,0.90
2018-09-13T17:27:38.763Z,0.60
2018-09-13T17:30:07.118Z,0.53
2018-09-13T17:32:35.443Z,0.50
2018-09-13T17:35:03.800Z,0.50
2018-09-13T17:37:32.109Z,0.50
2018-09-13T17:40:00.441Z,0.57
2018-09-13T17:42:28.748Z,0.50
2018-09-13T17:44:57.073Z,0.73
2018-09-13T17:47:25.385Z,0.40
2018-09-13T17:49:53.729Z,0.60
2018-09-13T17:52:22.031Z,0.50
2018-09-13T17:54:50.375Z,0.60
2018-09-13T17:57:18.768Z,0.70
2018-09-13T17:59:47.097Z,0.60
2018-09-13T18:02:15.462Z,0.70
2018-09-13T18:04:43.804Z,0.57
2018-09-13T18:07:12.575Z,0.40
2018-09-13T18:09:40.973Z,0.60
2018-09-13T18:12:09.277Z,0.53
2018-09-13T18:14:37.621Z,0.60
2018-09-13T18:17:06.001Z,0.80
2018-09-13T18:19:34.594Z,0.60
2018-09-13T18:22:03.010Z,0.50
2018-09-13T18:24:31.338Z,0.67
2018-09-13T18:26:59.646Z,0.57
2018-09-13T18:29:27.973Z,0.70
2018-09-13T18:31:56.306Z,0.50
2018-09-13T18:34:24.634Z,0.60
2018-09-13T18:36:52.945Z,0.60
2018-09-13T18:39:21.273Z,0.60
2018-09-13T18:41:49.578Z,0.60
2018-09-13T18:44:17.905Z,0.63
2018-09-13T18:46:46.241Z,0.70
2018-09-13T18:49:14.582Z,0.60
2018-09-13T18:51:42.903Z,0.70
2018-09-13T18:54:11.307Z,0.50
2018-09-13T18:56:39.551Z,0.60
2018-09-13T18:59:07.909Z,0.70
2018-09-13T19:01:36.217Z,0.60
2018-09-13T19:04:04.541Z,0.60
2018-09-13T19:06:32.854Z,0.60
2018-09-13T19:09:01.169Z,0.70
2018-09-13T19:11:29.530Z,0.50
2018-09-13T19:13:57.889Z,0.60
2018-09-13T19:16:26.194Z,0.50
2018-09-13T19:18:54.497Z,0.50
2018-09-13T19:21:22.828Z,0.50
2018-09-13T19:23:51.130Z,0.70
2018-09-13T19:26:19.457Z,0.60
2018-09-13T19:28:47.765Z,0.70
2018-09-13T19:31:16.093Z,0.70
2018-09-13T19:33:44.400Z,0.60
2018-09-13T19:36:12.728Z,0.53
2018-09-13T19:38:41.120Z,0.60
2018-09-13T19:41:09.441Z,0.80
2018-09-13T19:43:37.749Z,0.67
2018-09-13T19:46:06.158Z,0.60
2018-09-13T19:48:34.460Z,0.70
2018-09-13T19:51:02.908Z,0.67
2018-09-13T19:53:31.117Z,0.70
2018-09-13T19:55:59.442Z,0.50
2018-09-13T19:58:27.748Z,0.60
2018-09-13T20:00:56.077Z,0.70
2018-09-13T20:03:24.385Z,0.73
2018-09-13T20:05:52.808Z,0.70
2018-09-13T20:08:21.128Z,0.60
2018-09-13T20:10:49.485Z,0.70
2018-09-13T20:13:17.796Z,0.80
2018-09-13T20:15:46.130Z,0.70
2018-09-13T20:18:14.577Z,0.80
2018-09-13T20:20:42.844Z,1.00
2018-09-13T20:23:11.331Z,0.80
2018-09-13T20:25:39.733Z,0.87
2018-09-13T20:28:08.037Z,0.90
2018-09-13T20:30:36.361Z,0.70
2018-09-13T20:33:04.740Z,0.90
2018-09-13T20:35:33.091Z,0.80
2018-09-13T20:38:01.414Z,0.87
2018-09-13T20:40:29.736Z,0.70
2018-09-13T20:42:58.042Z,0.90
2018-09-13T20:45:26.411Z,0.80
2018-09-13T20:47:54.717Z,0.80
2018-09-13T20:50:23.049Z,0.90
2018-09-13T20:52:51.357Z,0.80
2018-09-13T20:55:19.685Z,0.67
2018-09-13T20:57:47.996Z,0.70
2018-09-13T21:00:18.181Z,0.70
2018-09-13T21:02:47.170Z,0.80
2018-09-13T21:05:15.529Z,0.70
2018-09-13T21:07:43.828Z,0.60
2018-09-13T21:10:12.343Z,0.70
2018-09-13T21:12:40.650Z,0.63
2018-09-13T21:15:09.389Z,0.70
2018-09-13T21:17:37.729Z,0.70
2018-09-13T21:20:12.721Z,1.00
2018-09-13T21:22:41.029Z,0.60
2018-09-13T21:25:09.373Z,0.93
2018-09-13T21:27:37.685Z,0.80
2018-09-13T21:30:06.056Z,0.60
2018-09-13T21:32:34.377Z,0.80
2018-09-13T21:35:02.697Z,1.00
2018-09-13T21:37:31.029Z,0.80
2018-09-13T21:39:59.334Z,0.80
2018-09-13T21:42:27.674Z,1.03
2018-09-13T21:44:55.986Z,0.60
2018-09-13T21:47:24.314Z,0.80
2018-09-13T21:49:52.629Z,0.90
2018-09-13T21:52:20.953Z,0.80
2018-09-13T21:54:49.267Z,0.80
2018-09-13T21:57:17.598Z,1.07
2018-09-13T21:59:45.897Z,0.83
2018-09-13T22:02:14.238Z,0.70
2018-09-13T22:04:42.545Z,0.80
2018-09-13T22:07:10.905Z,1.00
2018-09-13T22:09:39.286Z,0.83
2018-09-13T22:12:07.657Z,1.10
2018-09-13T22:14:35.960Z,1.10
2018-09-13T22:17:04.293Z,1.43
2018-09-13T22:19:32.603Z,1.13
2018-09-13T22:22:00.942Z,1.10
2018-09-13T22:24:29.259Z,1.27
2018-09-13T22:26:57.617Z,1.10
2018-09-13T22:29:25.934Z,1.23
2018-09-13T22:31:54.266Z,1.13
2018-09-13T22:34:22.572Z,1.00
2018-09-13T22:36:50.901Z,0.90
2018-09-13T22:39:19.224Z,1.20
2018-09-13T22:41:47.559Z,1.03
2018-09-13T22:44:15.872Z,1.43
2018-09-13T22:46:44.197Z,1.23
2018-09-13T22:49:12.515Z,1.13
2018-09-13T22:51:40.842Z,1.13
2018-09-13T22:54:09.153Z,1.10
2018-09-13T22:56:37.480Z,1.27
2018-09-13T22:59:05.808Z,1.00
2018-09-13T23:01:34.141Z,1.00
2018-09-13T23:04:02.459Z,0.87
2018-09-13T23:06:30.788Z,0.87
2018-09-13T23:08:59.100Z,1.10
2018-09-13T23:11:27.445Z,0.80
2018-09-13T23:13:55.756Z,0.80
2018-09-13T23:16:24.076Z,0.67
2018-09-13T23:18:52.393Z,0.77
2018-09-13T23:21:20.717Z,0.83
2018-09-13T23:23:49.018Z,0.70
2018-09-13T23:26:17.345Z,0.70
2018-09-13T23:28:45.651Z,0.67
2018-09-13T23:31:14.013Z,0.53
2018-09-13T23:33:42.330Z,0.50
2018-09-13T23:36:10.661Z,0.60
2018-09-13T23:38:38.965Z,0.70
2018-09-13T23:41:07.299Z,0.80
2018-09-13T23:43:35.610Z,0.80
2018-09-13T23:46:03.943Z,0.60
2018-09-13T23:48:32.266Z,0.70
2018-09-13T23:51:00.576Z,0.70
2018-09-13T23:53:28.934Z,0.60
2018-09-13T23:55:57.246Z,0.70
2018-09-13T23:58:25.577Z,0.60
